Wednesday, November 22, 2017, 12:55 PM GMT
Back to Local

CYUL, Montreal / Pierre Elliot Trudeau International Airport, Que

Location: , , Canada Lat: 45.467
Local Time: 12:55 PM GMT (12:55 GMT) Lon: -73.75
Time Zone: GMT Elev: 101 ft

Show me the last for .
Show Decoded

2017-11-22 12:00 METAR CYUL 221200Z 29008KT 10SM -RA FEW009 OVC025 02/01 A2992 RMK SF2SC6 SLP136
                 =
2017-11-22 11:00 METAR CYUL 221100Z 30008KT 10SM -RA FEW010 OVC020 03/01 A2991 RMK SF1SC7 SLP131
                 =
2017-11-22 10:00 METAR CYUL 221000Z 28005KT 15SM -RA FEW011 OVC020 04/03 A2987 RMK SF2SC6 -RA
                 INTMT SLP119 =
2017-11-22 09:18 METAR CYUL 220918Z 26004KT 15SM FEW011 OVC018 05/03 A2986 RMK SF2SC6 SLP116 =
2017-11-22 09:00 METAR CYUL 220900Z 27004KT 15SM -RA SCT012 BKN018 OVC025 04/03 A2986 RMK
                 SC4SC2SC2 SLP114 =
2017-11-22 08:00 METAR CYUL 220800Z 24005KT 15SM -RA BKN027 OVC040 05/03 A2986 RMK SC7SC1 SLP114
                 =
2017-11-22 07:00 METAR CYUL 220700Z 22006KT 15SM -RA BKN030 OVC050 06/02 A2985 RMK SC5SC3 SLP112
                 =
2017-11-22 06:00 METAR CYUL 220600Z 20007KT 15SM -RA OVC050 07/00 A2984 RMK SC8 SLP106 =
2017-11-22 05:39 METAR CYUL 220539Z 20008KT 15SM -RA BKN055 OVC080 07/M00 A2984 RMK SC5AC3 SLP106
                 =
2017-11-22 05:00 METAR CYUL 220500Z 20008KT 15SM BKN080 OVC120 07/M00 A2983 RMK AC6AC2 SLP103 =
2017-11-22 04:00 METAR CYUL 220400Z 22011KT 15SM BKN074 OVC160 07/M01 A2981 RMK AC7AC1 SLP099 =
2017-11-22 03:00 METAR CYUL 220300Z 18010KT 15SM BKN170 OVC210 08/M02 A2980 RMK AC5CS3 SLP095 =
2017-11-22 02:00 METAR CYUL 220200Z 19013KT 15SM OVC230 08/M03 A2979 RMK CS8 SLP092 =
2017-11-22 01:00 METAR CYUL 220100Z 15006KT 15SM OVC170 04/M02 A2979 RMK AC8 SLP092 =
2017-11-22 00:00 METAR CYUL 220000Z 15005KT 15SM SCT160 BKN240 05/M02 A2978 RMK AC4CI2 SLP087 =
2017-11-21 23:00 METAR CYUL 212300Z 18005KT 15SM FEW150 SCT190 06/M02 A2976 RMK AC2CI2 SLP082 =
2017-11-21 22:00 METAR CYUL 212200Z 20006KT 15SM SCT150 BKN200 08/M02 A2974 RMK AC3CI3 SLP075 =
2017-11-21 21:00 METAR CYUL 212100Z 16005KT 30SM BKN150 OVC210 07/M00 A2973 RMK AC5CI3 SLP071 =
2017-11-21 20:00 METAR CYUL 212000Z 15008KT 30SM SCT180 OVC210 07/M00 A2971 RMK AC4CI4 SLP065 =
2017-11-21 19:00 METAR CYUL 211900Z 15010KT 30SM SCT180 OVC230 08/M01 A2971 RMK AC3CS5 SLP063 =
2017-11-21 18:00 METAR CYUL 211800Z 16008KT 30SM FEW180 BKN240 08/M01 A2972 RMK AC2CI5 SLP067 =
2017-11-21 17:00 METAR CYUL 211700Z 15008KT 30SM R24L/3500VP6000FT/N FEW180 BKN240 07/M01 A2973
                 RMK AC1CI6 AC TR SLP071 =
2017-11-21 16:00 METAR CYUL 211600Z 14008KT 30SM FEW180 BKN240 06/M01 A2976 RMK AC1CI6 SLP079 =
2017-11-21 15:00 METAR CYUL 211500Z 16011KT 30SM FEW180 BKN220 05/M02 A2977 RMK AC1CI6 SLP083 =
2017-11-21 14:00 METAR CYUL 211400Z 16009KT 30SM BKN240 03/M02 A2979 RMK CI6 SLP091 =
2017-11-21 13:00 METAR CYUL 211300Z 16009KT 30SM BKN210 01/M02 A2981 RMK CI7 SLP098 =

Support USWX by starting your Amazon purchase here.